sensor_id;sensor_type;location;lat;lon;timestamp;temperature;humidity
1590;DHT22;788;48.720;9.158;2022-08-18T00:01:08;19.20;99.90
1590;DHT22;788;48.720;9.158;2022-08-18T00:03:35;19.20;99.90
1590;DHT22;788;48.720;9.158;2022-08-18T00:06:02;19.20;99.90
1590;DHT22;788;48.720;9.158;2022-08-18T00:08:28;19.10;99.90
1590;DHT22;788;48.720;9.158;2022-08-18T00:10:55;19.10;99.90
1590;DHT22;788;48.720;9.158;2022-08-18T00:13:23;19.10;99.90
1590;DHT22;788;48.720;9.158;2022-08-18T00:15:51;19.10;99.90
1590;DHT22;788;48.720;9.158;2022-08-18T00:18:18;19.20;99.90
1590;DHT22;788;48.720;9.158;2022-08-18T00:20:45;19.20;99.90
1590;DHT22;788;48.720;9.158;2022-08-18T00:23:13;19.10;99.90
1590;DHT22;788;48.720;9.158;2022-08-18T00:25:40;19.20;99.90
1590;DHT22;788;48.720;9.158;2022-08-18T00:28:07;19.20;99.90
1590;DHT22;788;48.720;9.158;2022-08-18T00:30:34;19.20;99.90
1590;DHT22;788;48.720;9.158;2022-08-18T00:33:02;19.20;99.90
1590;DHT22;788;48.720;9.158;2022-08-18T00:35:31;19.30;99.90
1590;DHT22;788;48.720;9.158;2022-08-18T00:37:59;19.30;99.90
1590;DHT22;788;48.720;9.158;2022-08-18T00:40:29;19.40;99.90
1590;DHT22;788;48.720;9.158;2022-08-18T00:42:59;19.40;99.90
1590;DHT22;788;48.720;9.158;2022-08-18T00:45:30;19.50;99.90
1590;DHT22;788;48.720;9.158;2022-08-18T00:47:58;19.60;99.90
1590;DHT22;788;48.720;9.158;2022-08-18T00:50:28;19.60;99.90
1590;DHT22;788;48.720;9.158;2022-08-18T00:53:02;19.70;99.90
1590;DHT22;788;48.720;9.158;2022-08-18T00:55:31;19.70;99.90
1590;DHT22;788;48.720;9.158;2022-08-18T00:58:02;19.70;99.90
1590;DHT22;788;48.720;9.158;2022-08-18T01:00:32;19.80;99.90
1590;DHT22;788;48.720;9.158;2022-08-18T01:03:04;19.80;99.90
1590;DHT22;788;48.720;9.158;2022-08-18T01:05:35;19.70;99.90
1590;DHT22;788;48.720;9.158;2022-08-18T01:08:06;19.80;99.90
1590;DHT22;788;48.720;9.158;2022-08-18T01:10:36;19.80;99.90
1590;DHT22;788;48.720;9.158;2022-08-18T01:13:03;19.80;99.90
1590;DHT22;788;48.720;9.158;2022-08-18T01:15:30;19.80;99.90
1590;DHT22;788;48.720;9.158;2022-08-18T01:18:00;19.80;99.90
1590;DHT22;788;48.720;9.158;2022-08-18T01:20:50;19.80;99.90
1590;DHT22;788;48.720;9.158;2022-08-18T01:23:38;19.90;99.90
1590;DHT22;788;48.720;9.158;2022-08-18T01:26:06;19.80;99.90
1590;DHT22;788;48.720;9.158;2022-08-18T01:28:36;19.90;99.90
1590;DHT22;788;48.720;9.158;2022-08-18T01:31:04;19.80;99.90
1590;DHT22;788;48.720;9.158;2022-08-18T01:33:33;19.80;99.90
1590;DHT22;788;48.720;9.158;2022-08-18T01:36:10;19.80;99.90
1590;DHT22;788;48.720;9.158;2022-08-18T01:38:42;19.80;99.90
1590;DHT22;788;48.720;9.158;2022-08-18T01:41:09;19.90;99.90
1590;DHT22;788;48.720;9.158;2022-08-18T01:43:36;19.80;99.90
1590;DHT22;788;48.720;9.158;2022-08-18T01:46:04;19.80;99.90
1590;DHT22;788;48.720;9.158;2022-08-18T01:48:33;19.70;99.90
1590;DHT22;788;48.720;9.158;2022-08-18T01:51:01;19.60;99.90
1590;DHT22;788;48.720;9.158;2022-08-18T01:53:28;19.50;99.90
1590;DHT22;788;48.720;9.158;2022-08-18T01:55:56;19.50;99.90
1590;DHT22;788;48.720;9.158;2022-08-18T01:58:23;19.50;99.90
1590;DHT22;788;48.720;9.158;2022-08-18T02:00:52;19.40;99.90
1590;DHT22;788;48.720;9.158;2022-08-18T02:03:21;19.40;99.90
1590;DHT22;788;48.720;9.158;2022-08-18T02:05:55;19.30;99.90
1590;DHT22;788;48.720;9.158;2022-08-18T02:08:23;19.20;99.90
1590;DHT22;788;48.720;9.158;2022-08-18T02:10:50;19.20;99.90
1590;DHT22;788;48.720;9.158;2022-08-18T02:13:18;19.10;99.90
1590;DHT22;788;48.720;9.158;2022-08-18T02:15:45;19.20;99.90
1590;DHT22;788;48.720;9.158;2022-08-18T02:18:13;19.10;99.90
1590;DHT22;788;48.720;9.158;2022-08-18T02:20:40;18.80;99.90
1590;DHT22;788;48.720;9.158;2022-08-18T02:23:07;18.70;99.90
1590;DHT22;788;48.720;9.158;2022-08-18T02:25:34;18.70;99.90
1590;DHT22;788;48.720;9.158;2022-08-18T02:28:01;18.70;99.90
1590;DHT22;788;48.720;9.158;2022-08-18T02:30:29;18.80;99.90
1590;DHT22;788;48.720;9.158;2022-08-18T02:32:56;18.70;99.90
1590;DHT22;788;48.720;9.158;2022-08-18T02:35:23;18.60;99.90
1590;DHT22;788;48.720;9.158;2022-08-18T02:37:50;18.50;99.90
1590;DHT22;788;48.720;9.158;2022-08-18T02:40:17;18.50;99.90
1590;DHT22;788;48.720;9.158;2022-08-18T02:42:45;18.40;99.90
1590;DHT22;788;48.720;9.158;2022-08-18T02:45:13;18.50;99.90
1590;DHT22;788;48.720;9.158;2022-08-18T02:47:41;18.40;99.90
1590;DHT22;788;48.720;9.158;2022-08-18T02:50:09;18.40;99.90
1590;DHT22;788;48.720;9.158;2022-08-18T02:52:36;18.40;99.90
1590;DHT22;788;48.720;9.158;2022-08-18T02:55:03;18.50;99.90
1590;DHT22;788;48.720;9.158;2022-08-18T02:57:30;18.60;99.90
1590;DHT22;788;48.720;9.158;2022-08-18T02:59:59;18.70;99.90
1590;DHT22;788;48.720;9.158;2022-08-18T03:02:26;18.70;99.90
1590;DHT22;788;48.720;9.158;2022-08-18T03:04:54;18.90;99.90
1590;DHT22;788;48.720;9.158;2022-08-18T03:07:20;18.90;99.90
1590;DHT22;788;48.720;9.158;2022-08-18T03:09:47;19.00;99.90
1590;DHT22;788;48.720;9.158;2022-08-18T03:12:14;19.00;99.90
1590;DHT22;788;48.720;9.158;2022-08-18T03:14:41;19.00;99.90
1590;DHT22;788;48.720;9.158;2022-08-18T03:17:08;19.10;99.90
1590;DHT22;788;48.720;9.158;2022-08-18T03:19:35;19.10;99.90
1590;DHT22;788;48.720;9.158;2022-08-18T03:22:06;19.00;99.90
1590;DHT22;788;48.720;9.158;2022-08-18T03:24:33;18.90;99.90
1590;DHT22;788;48.720;9.158;2022-08-18T03:27:04;18.80;99.90
1590;DHT22;788;48.720;9.158;2022-08-18T03:29:31;18.80;99.90
1590;DHT22;788;48.720;9.158;2022-08-18T03:31:58;18.70;99.90
1590;DHT22;788;48.720;9.158;2022-08-18T03:34:25;18.70;99.90
1590;DHT22;788;48.720;9.158;2022-08-18T03:36:52;18.70;99.90
1590;DHT22;788;48.720;9.158;2022-08-18T03:39:20;18.80;99.90
1590;DHT22;788;48.720;9.158;2022-08-18T03:41:49;18.90;99.90
1590;DHT22;788;48.720;9.158;2022-08-18T03:44:17;19.00;99.90
1590;DHT22;788;48.720;9.158;2022-08-18T03:46:44;19.00;99.90
1590;DHT22;788;48.720;9.158;2022-08-18T03:49:12;19.10;99.90
1590;DHT22;788;48.720;9.158;2022-08-18T03:51:41;19.10;99.90
1590;DHT22;788;48.720;9.158;2022-08-18T03:54:10;19.10;99.90
1590;DHT22;788;48.720;9.158;2022-08-18T03:56:40;19.20;99.90
1590;DHT22;788;48.720;9.158;2022-08-18T03:59:09;19.20;99.90
1590;DHT22;788;48.720;9.158;2022-08-18T04:01:39;19.30;99.90
1590;DHT22;788;48.720;9.158;2022-08-18T04:04:08;19.30;99.90
1590;DHT22;788;48.720;9.158;2022-08-18T04:06:37;19.30;99.90
1590;DHT22;788;48.720;9.158;2022-08-18T04:09:08;19.20;99.90
1590;DHT22;788;48.720;9.158;2022-08-18T04:11:36;19.20;99.90
1590;DHT22;788;48.720;9.158;2022-08-18T04:14:04;19.10;99.90
1590;DHT22;788;48.720;9.158;2022-08-18T04:16:32;19.20;99.90
1590;DHT22;788;48.720;9.158;2022-08-18T04:18:59;19.10;99.90
1590;DHT22;788;48.720;9.158;2022-08-18T04:21:27;19.10;99.90
1590;DHT22;788;48.720;9.158;2022-08-18T04:23:56;19.10;99.90
1590;DHT22;788;48.720;9.158;2022-08-18T04:26:24;19.00;99.90
1590;DHT22;788;48.720;9.158;2022-08-18T04:28:51;19.00;99.90
1590;DHT22;788;48.720;9.158;2022-08-18T04:31:19;19.00;99.90
1590;DHT22;788;48.720;9.158;2022-08-18T04:33:48;18.90;99.90
1590;DHT22;788;48.720;9.158;2022-08-18T04:36:15;18.80;99.90
1590;DHT22;788;48.720;9.158;2022-08-18T04:38:42;18.80;99.90
1590;DHT22;788;48.720;9.158;2022-08-18T04:41:11;18.90;99.90
1590;DHT22;788;48.720;9.158;2022-08-18T04:43:38;19.00;99.90
1590;DHT22;788;48.720;9.158;2022-08-18T04:46:05;19.10;99.90
1590;DHT22;788;48.720;9.158;2022-08-18T04:48:35;19.10;99.90
1590;DHT22;788;48.720;9.158;2022-08-18T04:51:06;19.00;99.90
1590;DHT22;788;48.720;9.158;2022-08-18T04:53:34;19.10;99.90
1590;DHT22;788;48.720;9.158;2022-08-18T04:56:17;19.20;99.90
1590;DHT22;788;48.720;9.158;2022-08-18T04:58:52;19.30;99.90
1590;DHT22;788;48.720;9.158;2022-08-18T05:01:21;19.20;99.90
1590;DHT22;788;48.720;9.158;2022-08-18T05:03:50;19.20;99.90
1590;DHT22;788;48.720;9.158;2022-08-18T05:06:19;19.30;99.90
1590;DHT22;788;48.720;9.158;2022-08-18T05:08:46;19.30;99.90
1590;DHT22;788;48.720;9.158;2022-08-18T05:11:13;19.10;99.90
1590;DHT22;788;48.720;9.158;2022-08-18T05:13:40;18.90;99.90
1590;DHT22;788;48.720;9.158;2022-08-18T05:16:07;18.90;99.90
1590;DHT22;788;48.720;9.158;2022-08-18T05:18:35;19.00;99.90
1590;DHT22;788;48.720;9.158;2022-08-18T05:21:05;19.10;99.90
1590;DHT22;788;48.720;9.158;2022-08-18T05:23:33;19.20;99.90
1590;DHT22;788;48.720;9.158;2022-08-18T05:26:01;19.30;99.90
1590;DHT22;788;48.720;9.158;2022-08-18T05:28:29;19.40;99.90
1590;DHT22;788;48.720;9.158;2022-08-18T05:30:56;19.40;99.90
1590;DHT22;788;48.720;9.158;2022-08-18T05:33:23;19.50;99.90
1590;DHT22;788;48.720;9.158;2022-08-18T05:35:54;19.50;99.90
1590;DHT22;788;48.720;9.158;2022-08-18T05:38:37;19.60;99.90
1590;DHT22;788;48.720;9.158;2022-08-18T05:41:08;19.60;99.90
1590;DHT22;788;48.720;9.158;2022-08-18T05:43:36;19.80;99.90
1590;DHT22;788;48.720;9.158;2022-08-18T05:46:05;19.90;99.90
1590;DHT22;788;48.720;9.158;2022-08-18T05:48:32;19.90;99.90
1590;DHT22;788;48.720;9.158;2022-08-18T05:51:07;19.90;99.90
1590;DHT22;788;48.720;9.158;2022-08-18T05:53:37;19.80;99.90
1590;DHT22;788;48.720;9.158;2022-08-18T05:56:26;19.70;99.90
1590;DHT22;788;48.720;9.158;2022-08-18T05:59:15;19.70;99.90
1590;DHT22;788;48.720;9.158;2022-08-18T06:01:47;19.90;99.90
1590;DHT22;788;48.720;9.158;2022-08-18T06:04:22;20.00;99.90
1590;DHT22;788;48.720;9.158;2022-08-18T06:06:52;20.20;99.90
1590;DHT22;788;48.720;9.158;2022-08-18T06:09:28;20.10;99.90
1590;DHT22;788;48.720;9.158;2022-08-18T06:12:06;20.20;99.90
1590;DHT22;788;48.720;9.158;2022-08-18T06:14:37;20.20;99.90
1590;DHT22;788;48.720;9.158;2022-08-18T06:17:15;20.10;99.90
1590;DHT22;788;48.720;9.158;2022-08-18T06:19:49;20.10;99.90
1590;DHT22;788;48.720;9.158;2022-08-18T06:22:25;20.40;99.90
1590;DHT22;788;48.720;9.158;2022-08-18T06:25:01;20.60;99.90
1590;DHT22;788;48.720;9.158;2022-08-18T06:27:36;20.80;99.90
1590;DHT22;788;48.720;9.158;2022-08-18T06:30:11;21.00;99.90
1590;DHT22;788;48.720;9.158;2022-08-18T06:33:05;21.00;99.90
1590;DHT22;788;48.720;9.158;2022-08-18T06:35:37;21.20;99.90
1590;DHT22;788;48.720;9.158;2022-08-18T06:38:26;21.40;99.90
1590;DHT22;788;48.720;9.158;2022-08-18T06:41:13;21.30;99.90
1590;DHT22;788;48.720;9.158;2022-08-18T06:43:48;21.50;99.90
1590;DHT22;788;48.720;9.158;2022-08-18T06:46:19;21.70;99.90
1590;DHT22;788;48.720;9.158;2022-08-18T06:48:52;21.90;99.90
1590;DHT22;788;48.720;9.158;2022-08-18T06:51:22;21.90;99.90
1590;DHT22;788;48.720;9.158;2022-08-18T06:53:56;21.70;99.90
1590;DHT22;788;48.720;9.158;2022-08-18T06:56:31;21.70;99.90
1590;DHT22;788;48.720;9.158;2022-08-18T06:59:18;21.80;99.90
1590;DHT22;788;48.720;9.158;2022-08-18T07:01:58;22.10;99.90
1590;DHT22;788;48.720;9.158;2022-08-18T07:04:35;22.30;99.90
1590;DHT22;788;48.720;9.158;2022-08-18T07:07:15;22.50;99.90
1590;DHT22;788;48.720;9.158;2022-08-18T07:09:42;22.70;99.90
1590;DHT22;788;48.720;9.158;2022-08-18T07:12:19;22.80;99.90
1590;DHT22;788;48.720;9.158;2022-08-18T07:14:48;22.90;99.90
1590;DHT22;788;48.720;9.158;2022-08-18T07:17:20;22.90;99.90
1590;DHT22;788;48.720;9.158;2022-08-18T07:19:54;23.00;99.90
1590;DHT22;788;48.720;9.158;2022-08-18T07:22:21;23.00;99.90
1590;DHT22;788;48.720;9.158;2022-08-18T07:24:49;22.70;99.90
1590;DHT22;788;48.720;9.158;2022-08-18T07:27:21;22.50;99.90
1590;DHT22;788;48.720;9.158;2022-08-18T07:29:59;22.20;99.90
1590;DHT22;788;48.720;9.158;2022-08-18T07:32:30;22.40;99.90
1590;DHT22;788;48.720;9.158;2022-08-18T07:35:02;22.20;99.90
1590;DHT22;788;48.720;9.158;2022-08-18T07:37:34;22.30;99.90
1590;DHT22;788;48.720;9.158;2022-08-18T07:40:09;22.40;99.90
1590;DHT22;788;48.720;9.158;2022-08-18T07:42:48;22.50;99.90
1590;DHT22;788;48.720;9.158;2022-08-18T07:45:21;22.40;99.90
1590;DHT22;788;48.720;9.158;2022-08-18T07:47:51;22.20;99.90
1590;DHT22;788;48.720;9.158;2022-08-18T07:50:20;21.90;99.90
1590;DHT22;788;48.720;9.158;2022-08-18T07:53:03;21.90;99.90
1590;DHT22;788;48.720;9.158;2022-08-18T07:55:34;22.00;99.90
1590;DHT22;788;48.720;9.158;2022-08-18T07:58:14;22.10;99.90
1590;DHT22;788;48.720;9.158;2022-08-18T08:00:49;22.10;99.90
1590;DHT22;788;48.720;9.158;2022-08-18T08:03:29;22.20;99.90
1590;DHT22;788;48.720;9.158;2022-08-18T08:06:13;22.30;99.90
1590;DHT22;788;48.720;9.158;2022-08-18T08:08:43;22.30;99.90
1590;DHT22;788;48.720;9.158;2022-08-18T08:11:27;22.40;99.90
1590;DHT22;788;48.720;9.158;2022-08-18T08:14:09;22.30;99.90
1590;DHT22;788;48.720;9.158;2022-08-18T08:16:45;22.20;99.90
1590;DHT22;788;48.720;9.158;2022-08-18T08:19:28;22.20;99.90
1590;DHT22;788;48.720;9.158;2022-08-18T08:22:11;22.20;99.90
1590;DHT22;788;48.720;9.158;2022-08-18T08:24:46;22.10;99.90
1590;DHT22;788;48.720;9.158;2022-08-18T08:27:22;22.10;99.90
1590;DHT22;788;48.720;9.158;2022-08-18T08:30:02;22.40;99.90
1590;DHT22;788;48.720;9.158;2022-08-18T08:32:34;22.70;99.90
1590;DHT22;788;48.720;9.158;2022-08-18T08:35:05;22.80;99.90
1590;DHT22;788;48.720;9.158;2022-08-18T08:37:40;23.00;99.90
1590;DHT22;788;48.720;9.158;2022-08-18T08:40:14;23.30;99.90
1590;DHT22;788;48.720;9.158;2022-08-18T08:42:46;23.30;99.90
1590;DHT22;788;48.720;9.158;2022-08-18T08:49:01;23.50;99.90
1590;DHT22;788;48.720;9.158;2022-08-18T08:51:35;23.60;99.90
1590;DHT22;788;48.720;9.158;2022-08-18T08:54:09;23.40;99.90
1590;DHT22;788;48.720;9.158;2022-08-18T08:56:41;23.70;99.90
1590;DHT22;788;48.720;9.158;2022-08-18T08:59:12;23.90;99.90
1590;DHT22;788;48.720;9.158;2022-08-18T09:01:44;23.70;99.90
1590;DHT22;788;48.720;9.158;2022-08-18T09:04:27;23.70;99.90
1590;DHT22;788;48.720;9.158;2022-08-18T09:07:07;24.00;99.90
1590;DHT22;788;48.720;9.158;2022-08-18T09:09:51;23.90;99.90
1590;DHT22;788;48.720;9.158;2022-08-18T09:12:39;23.90;99.90
1590;DHT22;788;48.720;9.158;2022-08-18T09:15:24;23.80;99.90
1590;DHT22;788;48.720;9.158;2022-08-18T09:18:06;23.70;99.90
1590;DHT22;788;48.720;9.158;2022-08-18T09:20:52;23.60;99.90
1590;DHT22;788;48.720;9.158;2022-08-18T09:23:24;23.60;99.90
1590;DHT22;788;48.720;9.158;2022-08-18T09:25:53;23.40;99.90
1590;DHT22;788;48.720;9.158;2022-08-18T09:28:22;23.10;99.90
1590;DHT22;788;48.720;9.158;2022-08-18T09:31:15;23.30;99.90
1590;DHT22;788;48.720;9.158;2022-08-18T09:34:06;23.50;99.90
1590;DHT22;788;48.720;9.158;2022-08-18T09:36:46;23.80;99.90
1590;DHT22;788;48.720;9.158;2022-08-18T09:39:23;23.80;99.90
1590;DHT22;788;48.720;9.158;2022-08-18T09:42:12;24.20;99.90
1590;DHT22;788;48.720;9.158;2022-08-18T09:44:59;24.60;99.90
1590;DHT22;788;48.720;9.158;2022-08-18T09:47:58;24.70;99.90
1590;DHT22;788;48.720;9.158;2022-08-18T09:50:54;24.80;99.90
1590;DHT22;788;48.720;9.158;2022-08-18T09:53:36;24.60;99.90
1590;DHT22;788;48.720;9.158;2022-08-18T09:56:04;24.60;99.90
1590;DHT22;788;48.720;9.158;2022-08-18T09:58:56;24.90;99.90
1590;DHT22;788;48.720;9.158;2022-08-18T10:01:38;25.00;99.90
1590;DHT22;788;48.720;9.158;2022-08-18T10:04:34;25.40;99.60
1590;DHT22;788;48.720;9.158;2022-08-18T10:07:16;25.80;98.80
1590;DHT22;788;48.720;9.158;2022-08-18T10:09:52;26.00;98.30
1590;DHT22;788;48.720;9.158;2022-08-18T10:12:32;26.20;97.60
1590;DHT22;788;48.720;9.158;2022-08-18T10:20:58;26.60;97.30
1590;DHT22;788;48.720;9.158;2022-08-18T10:23:46;27.00;96.80
1590;DHT22;788;48.720;9.158;2022-08-18T10:32:45;27.10;95.60
1590;DHT22;788;48.720;9.158;2022-08-18T10:38:22;26.90;95.80
1590;DHT22;788;48.720;9.158;2022-08-18T10:40:55;26.60;96.20
1590;DHT22;788;48.720;9.158;2022-08-18T10:43:29;26.20;96.60
1590;DHT22;788;48.720;9.158;2022-08-18T10:45:57;25.90;96.90
1590;DHT22;788;48.720;9.158;2022-08-18T10:48:27;26.10;97.10
1590;DHT22;788;48.720;9.158;2022-08-18T10:51:01;26.40;97.50
1590;DHT22;788;48.720;9.158;2022-08-18T10:53:33;26.60;96.40
1590;DHT22;788;48.720;9.158;2022-08-18T10:56:03;26.60;97.00
1590;DHT22;788;48.720;9.158;2022-08-18T10:58:54;26.70;95.90
1590;DHT22;788;48.720;9.158;2022-08-18T11:01:50;26.70;95.50
1590;DHT22;788;48.720;9.158;2022-08-18T11:04:28;26.90;95.30
1590;DHT22;788;48.720;9.158;2022-08-18T11:07:04;27.00;94.60
1590;DHT22;788;48.720;9.158;2022-08-18T11:09:32;27.30;94.90
1590;DHT22;788;48.720;9.158;2022-08-18T11:12:01;27.70;94.10
1590;DHT22;788;48.720;9.158;2022-08-18T11:14:56;28.00;93.50
1590;DHT22;788;48.720;9.158;2022-08-18T11:17:38;28.10;92.70
1590;DHT22;788;48.720;9.158;2022-08-18T11:20:13;28.40;91.90
1590;DHT22;788;48.720;9.158;2022-08-18T11:22:49;28.70;92.00
1590;DHT22;788;48.720;9.158;2022-08-18T11:25:21;27.60;91.60
1590;DHT22;788;48.720;9.158;2022-08-18T11:27:49;27.20;93.10
1590;DHT22;788;48.720;9.158;2022-08-18T11:30:18;27.10;93.20
1590;DHT22;788;48.720;9.158;2022-08-18T11:32:45;27.00;93.00
1590;DHT22;788;48.720;9.158;2022-08-18T11:35:17;26.80;92.90
1590;DHT22;788;48.720;9.158;2022-08-18T11:37:46;26.70;93.00
1590;DHT22;788;48.720;9.158;2022-08-18T11:40:35;26.60;93.60
1590;DHT22;788;48.720;9.158;2022-08-18T11:43:05;26.70;93.60
1590;DHT22;788;48.720;9.158;2022-08-18T11:45:52;26.70;93.30
1590;DHT22;788;48.720;9.158;2022-08-18T11:48:21;26.40;93.30
1590;DHT22;788;48.720;9.158;2022-08-18T11:51:09;26.50;94.00
1590;DHT22;788;48.720;9.158;2022-08-18T11:53:40;26.80;93.80
1590;DHT22;788;48.720;9.158;2022-08-18T11:56:19;26.70;93.50
1590;DHT22;788;48.720;9.158;2022-08-18T11:58:51;27.10;93.40
1590;DHT22;788;48.720;9.158;2022-08-18T12:01:34;27.70;92.60
1590;DHT22;788;48.720;9.158;2022-08-18T12:04:09;28.40;91.40
1590;DHT22;788;48.720;9.158;2022-08-18T12:06:55;28.50;90.40
1590;DHT22;788;48.720;9.158;2022-08-18T12:09:30;28.20;90.70
1590;DHT22;788;48.720;9.158;2022-08-18T12:11:59;28.40;90.30
1590;DHT22;788;48.720;9.158;2022-08-18T12:14:28;28.60;89.80
1590;DHT22;788;48.720;9.158;2022-08-18T12:16:56;29.20;89.70
1590;DHT22;788;48.720;9.158;2022-08-18T12:19:24;29.10;88.30
1590;DHT22;788;48.720;9.158;2022-08-18T12:21:55;28.90;88.00
1590;DHT22;788;48.720;9.158;2022-08-18T12:24:24;28.80;87.10
1590;DHT22;788;48.720;9.158;2022-08-18T12:26:52;28.40;87.80
1590;DHT22;788;48.720;9.158;2022-08-18T12:29:20;29.00;86.50
1590;DHT22;788;48.720;9.158;2022-08-18T12:31:48;28.80;86.20
1590;DHT22;788;48.720;9.158;2022-08-18T12:34:16;28.60;86.90
1590;DHT22;788;48.720;9.158;2022-08-18T12:36:44;28.40;87.30
1590;DHT22;788;48.720;9.158;2022-08-18T12:39:12;28.50;86.40
1590;DHT22;788;48.720;9.158;2022-08-18T12:41:39;29.00;86.10
1590;DHT22;788;48.720;9.158;2022-08-18T12:44:06;29.40;83.40
1590;DHT22;788;48.720;9.158;2022-08-18T12:46:32;30.20;79.90
1590;DHT22;788;48.720;9.158;2022-08-18T12:49:00;31.00;77.50
1590;DHT22;788;48.720;9.158;2022-08-18T12:51:28;31.40;73.80
1590;DHT22;788;48.720;9.158;2022-08-18T12:53:55;31.80;72.20
1590;DHT22;788;48.720;9.158;2022-08-18T12:56:24;31.10;72.40
1590;DHT22;788;48.720;9.158;2022-08-18T12:58:52;30.40;75.10
1590;DHT22;788;48.720;9.158;2022-08-18T13:01:19;30.30;76.80
1590;DHT22;788;48.720;9.158;2022-08-18T13:03:46;30.70;76.40
1590;DHT22;788;48.720;9.158;2022-08-18T13:06:13;30.50;72.90
1590;DHT22;788;48.720;9.158;2022-08-18T13:08:40;29.70;72.20
1590;DHT22;788;48.720;9.158;2022-08-18T13:11:07;29.60;73.60
1590;DHT22;788;48.720;9.158;2022-08-18T13:13:37;30.10;74.00
1590;DHT22;788;48.720;9.158;2022-08-18T13:16:05;30.50;74.20
1590;DHT22;788;48.720;9.158;2022-08-18T13:18:32;31.30;73.70
1590;DHT22;788;48.720;9.158;2022-08-18T13:20:59;31.90;71.30
1590;DHT22;788;48.720;9.158;2022-08-18T13:23:27;32.60;69.50
1590;DHT22;788;48.720;9.158;2022-08-18T13:25:56;33.00;65.90
1590;DHT22;788;48.720;9.158;2022-08-18T13:28:23;32.60;65.20
1590;DHT22;788;48.720;9.158;2022-08-18T13:30:51;32.50;64.50
1590;DHT22;788;48.720;9.158;2022-08-18T13:33:19;32.50;64.60
1590;DHT22;788;48.720;9.158;2022-08-18T13:35:46;32.70;62.60
1590;DHT22;788;48.720;9.158;2022-08-18T13:38:15;33.30;62.50
1590;DHT22;788;48.720;9.158;2022-08-18T13:40:45;33.60;62.50
1590;DHT22;788;48.720;9.158;2022-08-18T13:43:13;33.30;61.20
1590;DHT22;788;48.720;9.158;2022-08-18T13:45:40;33.10;61.70
1590;DHT22;788;48.720;9.158;2022-08-18T13:48:09;33.60;62.10
1590;DHT22;788;48.720;9.158;2022-08-18T13:50:36;34.00;59.80
1590;DHT22;788;48.720;9.158;2022-08-18T13:53:04;34.20;60.20
1590;DHT22;788;48.720;9.158;2022-08-18T13:55:32;34.10;58.20
1590;DHT22;788;48.720;9.158;2022-08-18T13:57:58;33.80;57.10
1590;DHT22;788;48.720;9.158;2022-08-18T14:00:25;33.60;59.40
1590;DHT22;788;48.720;9.158;2022-08-18T14:02:54;33.10;58.30
1590;DHT22;788;48.720;9.158;2022-08-18T14:05:22;32.70;60.30
1590;DHT22;788;48.720;9.158;2022-08-18T14:07:49;32.90;60.20
1590;DHT22;788;48.720;9.158;2022-08-18T14:10:16;32.20;60.70
1590;DHT22;788;48.720;9.158;2022-08-18T14:12:43;32.20;61.20
1590;DHT22;788;48.720;9.158;2022-08-18T14:15:13;31.90;61.20
1590;DHT22;788;48.720;9.158;2022-08-18T14:17:41;31.30;61.90
1590;DHT22;788;48.720;9.158;2022-08-18T14:20:09;30.60;64.60
1590;DHT22;788;48.720;9.158;2022-08-18T14:22:57;29.70;66.80
1590;DHT22;788;48.720;9.158;2022-08-18T14:29:14;29.30;66.80
1590;DHT22;788;48.720;9.158;2022-08-18T14:31:42;28.90;70.20
1590;DHT22;788;48.720;9.158;2022-08-18T14:34:09;29.10;70.40
1590;DHT22;788;48.720;9.158;2022-08-18T14:36:37;29.40;70.10
1590;DHT22;788;48.720;9.158;2022-08-18T14:39:05;29.50;69.30
1590;DHT22;788;48.720;9.158;2022-08-18T14:41:39;29.40;69.20
1590;DHT22;788;48.720;9.158;2022-08-18T14:47:48;29.50;69.60
1590;DHT22;788;48.720;9.158;2022-08-18T14:50:30;29.80;68.00
1590;DHT22;788;48.720;9.158;2022-08-18T15:00:21;29.80;67.20
1590;DHT22;788;48.720;9.158;2022-08-18T15:02:48;29.30;69.00
1590;DHT22;788;48.720;9.158;2022-08-18T15:05:22;29.10;69.30
1590;DHT22;788;48.720;9.158;2022-08-18T15:08:27;29.10;69.50
1590;DHT22;788;48.720;9.158;2022-08-18T15:11:12;29.10;69.00
1590;DHT22;788;48.720;9.158;2022-08-18T15:14:08;28.90;68.90
1590;DHT22;788;48.720;9.158;2022-08-18T15:16:35;28.60;69.70
1590;DHT22;788;48.720;9.158;2022-08-18T15:19:02;28.90;70.30
1590;DHT22;788;48.720;9.158;2022-08-18T15:21:31;28.90;69.50
1590;DHT22;788;48.720;9.158;2022-08-18T15:24:49;28.90;70.10
1590;DHT22;788;48.720;9.158;2022-08-18T15:27:40;29.00;70.90
1590;DHT22;788;48.720;9.158;2022-08-18T15:30:15;28.70;70.50
1590;DHT22;788;48.720;9.158;2022-08-18T15:32:46;28.30;72.40
1590;DHT22;788;48.720;9.158;2022-08-18T15:35:14;28.00;71.90
1590;DHT22;788;48.720;9.158;2022-08-18T15:37:42;27.80;72.60
1590;DHT22;788;48.720;9.158;2022-08-18T15:46:22;27.70;73.70
1590;DHT22;788;48.720;9.158;2022-08-18T15:48:51;28.00;73.80
1590;DHT22;788;48.720;9.158;2022-08-18T15:51:56;27.80;74.00
1590;DHT22;788;48.720;9.158;2022-08-18T15:58:32;27.80;74.30
1590;DHT22;788;48.720;9.158;2022-08-18T16:04:44;27.40;76.10
1590;DHT22;788;48.720;9.158;2022-08-18T16:07:34;27.40;76.40
1590;DHT22;788;48.720;9.158;2022-08-18T16:18:16;27.50;77.50
1590;DHT22;788;48.720;9.158;2022-08-18T16:29:21;26.90;78.00
1590;DHT22;788;48.720;9.158;2022-08-18T16:37:37;26.10;80.20
1590;DHT22;788;48.720;9.158;2022-08-18T16:40:07;26.00;81.00
1590;DHT22;788;48.720;9.158;2022-08-18T16:42:34;25.80;81.20
1590;DHT22;788;48.720;9.158;2022-08-18T16:45:04;25.80;82.00
1590;DHT22;788;48.720;9.158;2022-08-18T16:47:49;25.60;82.20
1590;DHT22;788;48.720;9.158;2022-08-18T16:50:40;25.40;82.30
1590;DHT22;788;48.720;9.158;2022-08-18T16:53:16;25.40;83.40
1590;DHT22;788;48.720;9.158;2022-08-18T16:55:43;25.10;83.90
1590;DHT22;788;48.720;9.158;2022-08-18T16:58:11;25.10;84.70
1590;DHT22;788;48.720;9.158;2022-08-18T17:00:57;25.10;85.70
1590;DHT22;788;48.720;9.158;2022-08-18T17:03:41;24.80;87.50
1590;DHT22;788;48.720;9.158;2022-08-18T17:06:27;24.70;89.20
1590;DHT22;788;48.720;9.158;2022-08-18T17:08:55;24.60;90.60
1590;DHT22;788;48.720;9.158;2022-08-18T17:11:24;24.50;91.60
1590;DHT22;788;48.720;9.158;2022-08-18T17:13:52;24.40;92.40
1590;DHT22;788;48.720;9.158;2022-08-18T17:16:21;24.40;92.90
1590;DHT22;788;48.720;9.158;2022-08-18T17:18:50;24.20;93.50
1590;DHT22;788;48.720;9.158;2022-08-18T17:21:20;24.20;94.10
1590;DHT22;788;48.720;9.158;2022-08-18T17:23:53;24.00;94.70
1590;DHT22;788;48.720;9.158;2022-08-18T17:26:40;23.90;95.40
1590;DHT22;788;48.720;9.158;2022-08-18T17:29:14;23.80;95.90
1590;DHT22;788;48.720;9.158;2022-08-18T17:31:55;23.50;96.60
1590;DHT22;788;48.720;9.158;2022-08-18T17:34:31;23.40;97.30
1590;DHT22;788;48.720;9.158;2022-08-18T17:36:59;23.30;97.70
1590;DHT22;788;48.720;9.158;2022-08-18T17:39:29;23.20;98.20
1590;DHT22;788;48.720;9.158;2022-08-18T17:41:57;23.20;98.60
1590;DHT22;788;48.720;9.158;2022-08-18T17:44:43;23.20;99.00
1590;DHT22;788;48.720;9.158;2022-08-18T17:47:17;23.10;99.30
1590;DHT22;788;48.720;9.158;2022-08-18T17:49:44;23.10;99.40
1590;DHT22;788;48.720;9.158;2022-08-18T17:52:34;23.10;99.60
1590;DHT22;788;48.720;9.158;2022-08-18T17:55:07;23.10;99.80
1590;DHT22;788;48.720;9.158;2022-08-18T17:57:39;23.00;99.90
1590;DHT22;788;48.720;9.158;2022-08-18T18:00:10;22.90;99.90
1590;DHT22;788;48.720;9.158;2022-08-18T18:02:40;22.90;99.90